Historique des mesures à Cassis (13260), France
Quotidien Résumé Janvier 15, 2017 Unités:  Métrique    US   Métrique/US
« Précédent (Jour)
Suivant (Jour) »
Quotidien Hebdomadaire Mensuel Annuel Période au choix
  Maximum: Minimum: Moyenne:
Température: TemperatureC °C 2.4 °C 4.9 °C
Point de rosée: DewpointC °C -7.9 °C -6 °C
Humidité: Humidity % 33 % 43 %
Vitesse du vent: 0 km/h 0 km/h 13.7 km/h
Rafales: 0 km/h - -
Vent:- - SW
Pression: PressurehPa hPa 1010.7 hPa -
Précipitations: 0.0 mm    
Historical Graphs
 
 
Mesures pour : Janvier 15, 2017
Heure Temperature Point de rosée Pression Vent Vitesse du vent Rafales Humidité Pluie (par heure) Conditions
TemperatureC °C DewpointC °C PressurehPa hPa Calm     Humidity % HourlyPrecipMM mm SoftwareType W/m2
00:11 3.8 °C -6.0 °C 1013.1 hPa WNW 30.1 km/h 30.1 km/h 49 % 0.0 mm open2300-1.11 W/m2
01:10 3.5 °C -6.2 °C 1012.4 hPa Calm   15.6 km/h 49 % 0.0 mm open2300-1.11 W/m2
02:11 3.6 °C -6.4 °C 1012.4 hPa Calm   5.6 km/h 48 % 0.0 mm open2300-1.11 W/m2
03:10 3.6 °C -5.8 °C 1012.4 hPa WNW 24.8 km/h 24.8 km/h 50 % 0.0 mm open2300-1.11 W/m2
04:11 3.5 °C -5.2 °C 1012.4 hPa Calm   2.3 km/h 53 % 0.0 mm open2300-1.11 W/m2
05:10 3.4 °C -5.1 °C 1011.1 hPa NNW 1.8 km/h 1.8 km/h 54 % 0.0 mm open2300-1.11 W/m2
06:11 3.1 °C -5.1 °C 1011.1 hPa NNW 5.6 km/h 5.6 km/h 55 % 0.0 mm open2300-1.11 W/m2
07:10 2.9 °C -4.6 °C 1011.1 hPa NNW 6.4 km/h 23.8 km/h 58 % 0.0 mm open2300-1.11 W/m2
08:11 2.4 °C -4.8 °C 1010.7 hPa NW 12.7 km/h 15.6 km/h 59 % 0.0 mm open2300-1.11 W/m2
09:10 3.4 °C -6.1 °C 1011.1 hPa NNW 9.8 km/h 26.7 km/h 50 % 0.0 mm open2300-1.11 W/m2
10:11 4.5 °C -6.8 °C 1012.1 hPa North 15 km/h 15 km/h 44 % 0.0 mm open2300-1.11 W/m2
11:10 5.6 °C -6.7 °C 1013.4 hPa North 13.2 km/h 13.2 km/h 41 % 0.0 mm open2300-1.11 W/m2
12:11 7.3 °C -6.9 °C 1012.8 hPa NNW 42.2 km/h 42.2 km/h 36 % 0.0 mm open2300-1.11 W/m2
13:10 8.2 °C -7.2 °C 1012.8 hPa WNW 43.5 km/h 43.5 km/h 33 % 0.0 mm open2300-1.11 W/m2
14:11 8.6 °C -6.5 °C 1012.1 hPa North 11.6 km/h 27.7 km/h 34 % 0.0 mm open2300-1.11 W/m2
15:10 9.1 °C -6.1 °C 1012.4 hPa NNW 12.2 km/h 12.2 km/h 34 % 0.0 mm open2300-1.11 W/m2
16:11 8.3 °C -5.6 °C 1012.4 hPa North 12.7 km/h 51 km/h 37 % 0.0 mm open2300-1.11 W/m2
17:10 7.1 °C -6.3 °C 1012.8 hPa NNW 13.2 km/h 20.9 km/h 38 % 0.0 mm open2300-1.11 W/m2
18:11 5.9 °C -6.4 °C 1013.1 hPa North 11.6 km/h 30.7 km/h 41 % 0.0 mm open2300-1.11 W/m2
19:10 5.4 °C -6.6 °C 1013.4 hPa WNW 30.7 km/h 37.5 km/h 42 % 0.0 mm open2300-1.11 W/m2
20:11 5.2 °C -7.0 °C 1013.4 hPa North 9.8 km/h 9.8 km/h 41 % 0.0 mm open2300-1.11 W/m2
21:10 5.0 °C -7.5 °C 1013.8 hPa Calm   9.3 km/h 40 % 0.0 mm open2300-1.11 W/m2
22:11 4.9 °C -7.9 °C 1013.8 hPa Calm   14.5 km/h 39 % 0.0 mm open2300-1.11 W/m2
23:10 4.7 °C -7.5 °C 1013.4 hPa NNW 37 km/h 37 km/h 41 % 0.0 mm open2300-1.11 W/m2
Observations météo à CASSIS
WU-History script by Weather Underground - 1 mb